Time;durP1;ratioP1;P1;durP2;ratioP2;P2;SDS_P1;SDS_P2;PMS_P1;PMS_P2;Temp;Humidity;BMP_temperature;BMP_pressure;BME280_temperature;BME280_humidity;BME280_pressure;Samples;Min_cycle;Max_cycle;Signal;HPM_P1;HPM_P2
2023/08/26 00:02:03;;;;;;;8.30;6.55;;;27.50;96.70;;;;;;5043566;28;20129;-72
2023/08/26 00:04:32;;;;;;;9.98;6.65;;;27.50;96.70;;;;;;5045475;28;20068;-73
2023/08/26 00:07:02;;;;;;;7.38;6.60;;;27.50;96.70;;;;;;5044103;28;20097;-74
2023/08/26 00:09:30;;;;;;;6.75;6.15;;;27.50;96.70;;;;;;5049820;28;20102;-73
2023/08/26 00:11:58;;;;;;;6.43;5.82;;;27.50;96.70;;;;;;5045300;28;20131;-73
2023/08/26 00:14:26;;;;;;;6.85;6.25;;;27.50;96.70;;;;;;5045712;28;20052;-73
2023/08/26 00:16:54;;;;;;;8.48;6.10;;;27.50;96.70;;;;;;5045036;28;20051;-73
2023/08/26 00:19:22;;;;;;;7.25;6.55;;;27.60;96.70;;;;;;5045464;28;20052;-72
2023/08/26 00:21:50;;;;;;;6.38;5.88;;;27.50;96.70;;;;;;5052437;28;20037;-73
2023/08/26 00:24:20;;;;;;;6.82;6.03;;;27.50;96.70;;;;;;5045375;28;20597;-73
2023/08/26 00:26:48;;;;;;;6.93;6.32;;;27.50;96.70;;;;;;5064348;28;20071;-73
2023/08/26 00:29:16;;;;;;;7.60;6.88;;;27.50;96.70;;;;;;5045548;28;20040;-73
2023/08/26 00:31:44;;;;;;;7.18;6.47;;;27.50;96.70;;;;;;5044720;28;20692;-73
2023/08/26 00:34:12;;;;;;;6.85;6.18;;;27.40;96.70;;;;;;5045904;28;20573;-73
2023/08/26 00:36:40;;;;;;;9.75;6.85;;;27.40;96.70;;;;;;5064125;28;20044;-73
2023/08/26 00:39:08;;;;;;;7.47;6.50;;;27.50;96.70;;;;;;5045227;28;20171;-73
2023/08/26 00:41:38;;;;;;;8.43;6.22;;;27.50;96.70;;;;;;5046072;28;20053;-73
2023/08/26 00:44:06;;;;;;;8.07;6.30;;;27.50;96.70;;;;;;5045177;28;20148;-72
2023/08/26 00:46:35;;;;;;;8.88;6.80;;;27.40;96.70;;;;;;5063424;28;20036;-73
2023/08/26 00:49:03;;;;;;;8.98;6.70;;;27.30;96.70;;;;;;5057473;28;20067;-73
2023/08/26 00:51:32;;;;;;;7.32;6.40;;;27.20;96.70;;;;;;5049193;28;20148;-73
2023/08/26 00:54:00;;;;;;;7.57;6.40;;;27.20;96.70;;;;;;5044300;28;20068;-72
2023/08/26 00:56:28;;;;;;;6.75;6.25;;;27.10;96.70;;;;;;5043291;28;20048;-74
2023/08/26 00:58:58;;;;;;;7.72;5.93;;;27.10;96.70;;;;;;5041507;28;20065;-73
2023/08/26 01:01:31;;;;;;;7.63;6.15;;;27.10;96.70;;;;;;5063736;28;20134;-73
2023/08/26 01:04:00;;;;;;;6.65;5.90;;;27.10;96.70;;;;;;5028876;28;20059;-75
2023/08/26 01:06:28;;;;;;;9.40;6.22;;;27.10;96.70;;;;;;5028619;28;20036;-74
2023/08/26 01:08:56;;;;;;;6.90;6.38;;;27.00;96.70;;;;;;5045331;28;20055;-73
2023/08/26 01:11:33;;;;;;;7.72;6.18;;;26.90;96.70;;;;;;5048341;28;20050;-73
2023/08/26 01:14:11;;;;;;;7.70;6.93;;;26.80;96.70;;;;;;5042157;28;20058;-73
2023/08/26 01:16:40;;;;;;;6.88;6.28;;;26.70;96.70;;;;;;5063823;28;20136;-74
2023/08/26 01:19:25;;;;;;;7.65;6.25;;;26.60;96.70;;;;;;5031883;28;20631;-74
2023/08/26 01:21:58;;;;;;;7.13;6.45;;;26.60;96.70;;;;;;5060860;28;20052;-74
2023/08/26 01:24:28;;;;;;;6.65;6.05;;;26.60;96.70;;;;;;5048969;28;20687;-73
2023/08/26 01:26:57;;;;;;;6.93;6.25;;;26.60;96.70;;;;;;5060199;28;20537;-74
2023/08/26 01:29:25;;;;;;;7.10;6.45;;;26.50;96.70;;;;;;5033306;28;20494;-74
2023/08/26 01:32:03;;;;;;;6.40;5.90;;;26.70;96.70;;;;;;5046380;28;20067;-73
2023/08/26 01:34:35;;;;;;;8.13;6.40;;;26.60;96.70;;;;;;5049824;28;20048;-74
2023/08/26 01:37:07;;;;;;;7.20;6.60;;;26.60;96.70;;;;;;5049678;28;20067;-74
2023/08/26 01:39:37;;;;;;;7.13;6.40;;;26.60;96.70;;;;;;5049355;28;20062;-74
2023/08/26 01:42:07;;;;;;;8.35;6.68;;;26.60;96.70;;;;;;5048450;28;20048;-74
2023/08/26 01:44:36;;;;;;;7.13;6.50;;;26.60;96.70;;;;;;5029416;28;20107;-74
2023/08/26 01:47:05;;;;;;;6.65;6.15;;;26.50;96.70;;;;;;5040423;28;20049;-73
2023/08/26 01:49:33;;;;;;;7.88;6.63;;;26.40;96.70;;;;;;5044732;28;20498;-74
2023/08/26 01:52:01;;;;;;;8.98;6.78;;;26.40;96.70;;;;;;5048284;28;20043;-73
2023/08/26 01:54:29;;;;;;;6.95;6.25;;;26.40;96.70;;;;;;5031398;28;20048;-74
2023/08/26 01:56:58;;;;;;;7.40;5.80;;;26.40;96.70;;;;;;5052907;28;20140;-73
2023/08/26 01:59:26;;;;;;;7.97;6.95;;;26.40;96.70;;;;;;5048393;28;20060;-75
2023/08/26 02:01:54;;;;;;;8.20;6.47;;;26.40;96.70;;;;;;5048660;28;20167;-73
2023/08/26 02:04:23;;;;;;;7.75;6.50;;;26.40;96.70;;;;;;5048070;28;20072;-73
2023/08/26 02:06:51;;;;;;;7.63;6.82;;;26.40;96.70;;;;;;5057906;28;20151;-73
2023/08/26 02:09:19;;;;;;;7.35;6.00;;;26.40;96.70;;;;;;5046996;28;20870;-73
2023/08/26 02:11:47;;;;;;;9.18;6.20;;;26.40;96.70;;;;;;5040180;28;20048;-74
2023/08/26 02:14:17;;;;;;;7.32;6.65;;;26.30;96.70;;;;;;5047951;28;20143;-73
2023/08/26 02:16:45;;;;;;;6.75;6.15;;;26.20;96.70;;;;;;5048144;28;20070;-74
2023/08/26 02:19:13;;;;;;;7.82;7.00;;;26.20;96.70;;;;;;5048032;28;20045;-74
2023/08/26 02:21:44;;;;;;;6.80;6.20;;;26.40;96.70;;;;;;5065646;28;20055;-74
2023/08/26 02:24:12;;;;;;;9.65;6.75;;;26.30;96.70;;;;;;5058545;28;20601;-73
2023/08/26 02:26:43;;;;;;;6.35;5.75;;;26.20;96.70;;;;;;5032428;28;20044;-74
2023/08/26 02:29:11;;;;;;;7.90;6.65;;;26.30;96.70;;;;;;5065559;28;20079;-75
2023/08/26 02:31:40;;;;;;;8.15;6.30;;;26.20;96.70;;;;;;5065833;28;20033;-74
2023/08/26 02:34:09;;;;;;;8.25;6.55;;;26.20;96.70;;;;;;5044323;28;20118;-74
2023/08/26 02:36:38;;;;;;;7.65;6.95;;;26.20;96.70;;;;;;5040426;28;20098;-74
2023/08/26 02:39:07;;;;;;;7.18;6.22;;;26.20;96.70;;;;;;5065840;28;20591;-75
2023/08/26 02:41:35;;;;;;;9.23;6.45;;;26.20;96.70;;;;;;5044338;28;20033;-74
2023/08/26 02:44:03;;;;;;;7.82;7.00;;;26.20;96.70;;;;;;5044691;28;20084;-73
2023/08/26 02:46:31;;;;;;;7.05;6.35;;;26.20;96.70;;;;;;5048126;28;20055;-74
2023/08/26 02:49:01;;;;;;;6.97;6.30;;;26.20;96.70;;;;;;5047277;28;20049;-74
2023/08/26 02:51:29;;;;;;;8.35;6.78;;;26.20;96.70;;;;;;5031297;28;20139;-74
2023/08/26 02:53:57;;;;;;;7.55;6.82;;;26.10;96.70;;;;;;5033568;28;20060;-73
2023/08/26 02:56:26;;;;;;;8.07;7.28;;;26.10;96.70;;;;;;5047514;28;20052;-74
2023/08/26 02:58:54;;;;;;;7.55;6.57;;;26.10;96.70;;;;;;5030641;28;20045;-74
2023/08/26 03:01:24;;;;;;;7.05;6.45;;;26.10;96.70;;;;;;5029792;28;20059;-74
2023/08/26 03:03:52;;;;;;;8.50;6.85;;;26.20;96.70;;;;;;5046600;28;20044;-74
2023/08/26 03:06:22;;;;;;;9.07;7.43;;;26.20;96.70;;;;;;5046946;28;20098;-74
2023/08/26 03:08:50;;;;;;;8.07;7.22;;;26.00;96.70;;;;;;5044479;28;20041;-73
2023/08/26 03:11:18;;;;;;;7.40;6.32;;;26.00;96.70;;;;;;5047880;28;20048;-73
2023/08/26 03:13:46;;;;;;;7.75;7.00;;;25.90;96.70;;;;;;5046838;28;20139;-71
2023/08/26 03:16:14;;;;;;;7.28;6.68;;;25.90;96.70;;;;;;5045112;28;20048;-71
2023/08/26 03:18:43;;;;;;;9.05;6.95;;;25.80;96.70;;;;;;5046676;28;20051;-74
2023/08/26 03:21:11;;;;;;;7.22;6.22;;;25.70;96.70;;;;;;5044444;28;20102;-73
2023/08/26 03:23:40;;;;;;;8.90;7.50;;;25.70;96.70;;;;;;5045836;28;20055;-74
2023/08/26 03:26:08;;;;;;;7.20;6.50;;;25.50;96.70;;;;;;5045257;28;20448;-73
2023/08/26 03:28:36;;;;;;;8.85;6.70;;;25.40;96.70;;;;;;5054038;28;20028;-74
2023/08/26 03:31:08;;;;;;;9.38;7.30;;;25.50;96.70;;;;;;5027940;28;20060;-72
2023/08/26 03:33:42;;;;;;;8.73;7.00;;;25.60;96.70;;;;;;5021864;28;20053;-73
2023/08/26 03:36:12;;;;;;;7.68;6.97;;;25.60;96.70;;;;;;5023527;28;20140;-74
2023/08/26 03:38:41;;;;;;;8.90;6.78;;;25.50;96.70;;;;;;5026816;28;20069;-72
2023/08/26 03:41:09;;;;;;;7.85;7.07;;;25.40;96.70;;;;;;5030864;28;20096;-74
2023/08/26 03:43:37;;;;;;;7.78;7.07;;;25.50;96.70;;;;;;5043288;28;20106;-74
2023/08/26 03:46:05;;;;;;;7.63;6.65;;;25.50;96.70;;;;;;5043167;28;20049;-75
2023/08/26 03:48:33;;;;;;;7.85;7.05;;;25.50;96.70;;;;;;5039700;28;20041;-75
2023/08/26 03:51:03;;;;;;;7.45;6.75;;;25.50;96.70;;;;;;5039999;28;20033;-75
2023/08/26 03:53:32;;;;;;;8.13;6.82;;;25.60;96.70;;;;;;5025094;28;20041;-74
2023/08/26 03:56:03;;;;;;;7.13;6.35;;;25.50;96.70;;;;;;5049434;28;20050;-74
2023/08/26 03:58:31;;;;;;;7.53;6.82;;;25.50;96.70;;;;;;5020411;28;20122;-73
2023/08/26 04:01:01;;;;;;;8.50;6.88;;;25.50;96.70;;;;;;5038707;28;20068;-73
2023/08/26 04:03:29;;;;;;;8.85;6.47;;;25.50;96.70;;;;;;5053422;28;20076;-74
2023/08/26 04:05:58;;;;;;;9.90;7.25;;;25.50;96.70;;;;;;5022627;28;20045;-74
2023/08/26 04:08:27;;;;;;;7.30;6.68;;;25.50;96.70;;;;;;5017255;28;20092;-73
2023/08/26 04:10:56;;;;;;;7.38;6.63;;;25.50;96.70;;;;;;5039630;28;20048;-73
2023/08/26 04:13:27;;;;;;;9.40;6.78;;;25.50;96.70;;;;;;5042707;28;20053;-74
2023/08/26 04:15:56;;;;;;;9.48;7.18;;;25.50;96.70;;;;;;5037164;28;20049;-74
2023/08/26 04:18:25;;;;;;;7.45;6.72;;;25.60;96.70;;;;;;5024692;28;20526;-74
2023/08/26 04:20:53;;;;;;;7.15;6.45;;;25.60;96.70;;;;;;5030994;28;20384;-73
2023/08/26 04:23:21;;;;;;;7.30;6.70;;;25.50;96.70;;;;;;5018734;28;20045;-74
2023/08/26 04:25:54;;;;;;;10.95;7.32;;;25.50;96.70;;;;;;5034267;28;20045;-74
2023/08/26 04:28:23;;;;;;;7.75;7.05;;;25.40;96.70;;;;;;5025575;28;20148;-74
2023/08/26 04:30:52;;;;;;;9.95;6.70;;;25.50;96.70;;;;;;5040743;28;20132;-74
2023/08/26 04:33:20;;;;;;;8.07;7.28;;;25.40;96.70;;;;;;5041097;28;20049;-73
2023/08/26 04:35:48;;;;;;;7.63;6.82;;;25.30;96.70;;;;;;5030349;28;20048;-74
2023/08/26 04:38:16;;;;;;;7.53;6.75;;;25.20;96.70;;;;;;5037100;28;20131;-74
2023/08/26 04:40:45;;;;;;;7.63;6.60;;;25.10;96.70;;;;;;5016071;28;20037;-73
2023/08/26 04:43:13;;;;;;;7.30;6.60;;;25.00;96.70;;;;;;5024658;28;20053;-73
2023/08/26 04:45:41;;;;;;;7.53;6.82;;;25.10;96.70;;;;;;5028231;28;20503;-74
2023/08/26 04:48:12;;;;;;;8.13;7.30;;;25.20;96.70;;;;;;5042260;28;20045;-73
2023/08/26 04:50:41;;;;;;;11.13;7.40;;;25.20;96.70;;;;;;5025934;28;20045;-74
2023/08/26 04:53:09;;;;;;;8.80;7.10;;;25.10;96.70;;;;;;5023356;28;20049;-72
2023/08/26 04:55:37;;;;;;;8.23;7.10;;;25.10;96.70;;;;;;5026539;28;20041;-73
2023/08/26 04:58:07;;;;;;;7.93;7.20;;;25.10;96.70;;;;;;5022563;28;20045;-74
2023/08/26 05:00:36;;;;;;;8.68;6.63;;;25.10;96.70;;;;;;5026178;28;20045;-74
2023/08/26 05:03:04;;;;;;;7.90;7.10;;;25.20;96.70;;;;;;5041928;28;20045;-74
2023/08/26 05:05:34;;;;;;;8.13;7.30;;;25.20;96.70;;;;;;5028635;28;20041;-74
2023/08/26 05:08:02;;;;;;;8.10;6.95;;;25.20;96.70;;;;;;5022275;28;20507;-75
2023/08/26 05:10:30;;;;;;;7.72;6.95;;;25.20;96.70;;;;;;5040447;28;20045;-75
2023/08/26 05:12:58;;;;;;;7.75;7.10;;;25.10;96.70;;;;;;5041614;28;20478;-74
2023/08/26 05:15:28;;;;;;;8.10;6.95;;;25.20;96.70;;;;;;5043158;28;20418;-73
2023/08/26 05:17:56;;;;;;;9.68;6.97;;;25.20;96.70;;;;;;5058774;28;20172;-74
2023/08/26 05:20:25;;;;;;;7.75;6.95;;;25.30;96.70;;;;;;5022937;28;20069;-74
2023/08/26 05:22:55;;;;;;;8.65;7.72;;;25.40;96.70;;;;;;5004047;28;20112;-74
2023/08/26 05:25:24;;;;;;;7.65;6.95;;;25.40;96.70;;;;;;5021837;28;20057;-75
2023/08/26 05:27:52;;;;;;;8.73;7.30;;;25.40;96.70;;;;;;5031203;28;20613;-73
2023/08/26 05:30:20;;;;;;;9.45;7.15;;;25.40;96.70;;;;;;5026225;28;20528;-72
2023/08/26 05:32:53;;;;;;;8.73;7.20;;;25.50;96.70;;;;;;5033957;28;20084;-72
2023/08/26 05:35:21;;;;;;;8.25;7.45;;;25.50;96.70;;;;;;5027704;28;20452;-72
2023/08/26 05:37:49;;;;;;;9.38;7.07;;;25.60;96.70;;;;;;5040946;28;20070;-72
2023/08/26 05:40:26;;;;;;;9.07;7.45;;;25.70;96.70;;;;;;5026021;28;20055;-72
2023/08/26 05:42:55;;;;;;;8.95;7.40;;;25.80;96.70;;;;;;5014961;28;20056;-72
2023/08/26 05:45:25;;;;;;;8.25;7.15;;;25.70;96.70;;;;;;5035414;28;20136;-74
2023/08/26 05:47:54;;;;;;;8.35;7.30;;;25.70;96.70;;;;;;5026420;28;20463;-73
2023/08/26 05:50:23;;;;;;;8.23;7.45;;;25.60;96.70;;;;;;5038991;28;20636;-72
2023/08/26 05:52:52;;;;;;;7.75;7.03;;;25.70;96.70;;;;;;5038336;28;20053;-73
2023/08/26 05:55:22;;;;;;;8.55;7.55;;;25.70;96.70;;;;;;5037229;28;20104;-73
2023/08/26 05:57:50;;;;;;;8.18;7.38;;;25.70;96.70;;;;;;5026516;28;20046;-75
2023/08/26 06:00:19;;;;;;;10.75;7.63;;;25.80;96.70;;;;;;5034605;28;20050;-73
2023/08/26 06:02:49;;;;;;;9.43;8.43;;;25.80;96.70;;;;;;5019143;28;20053;-74
2023/08/26 06:05:19;;;;;;;14.00;8.00;;;25.80;96.70;;;;;;5028650;28;20057;-74
2023/08/26 06:07:50;;;;;;;8.98;7.95;;;25.80;96.70;;;;;;5038940;28;20514;-73
2023/08/26 06:10:19;;;;;;;14.95;8.27;;;25.80;96.70;;;;;;5021576;28;20057;-75
2023/08/26 06:12:48;;;;;;;14.55;8.52;;;25.70;96.70;;;;;;5016284;28;20057;-74
2023/08/26 06:15:20;;;;;;;10.13;7.80;;;25.60;96.70;;;;;;5043360;28;20076;-73
2023/08/26 06:17:48;;;;;;;8.63;7.82;;;25.70;96.70;;;;;;5031435;28;20399;-74
2023/08/26 06:20:22;;;;;;;10.60;8.10;;;25.70;96.70;;;;;;5035994;28;20045;-74
2023/08/26 06:22:50;;;;;;;7.80;7.18;;;25.80;96.70;;;;;;5032335;28;20045;-75
2023/08/26 06:25:18;;;;;;;8.20;6.90;;;25.80;96.70;;;;;;5035748;28;20525;-77
2023/08/26 06:27:48;;;;;;;9.60;7.80;;;25.90;96.70;;;;;;5019837;28;20055;-76
2023/08/26 06:30:17;;;;;;;8.73;7.82;;;26.00;96.70;;;;;;5016663;28;20045;-75
2023/08/26 06:32:45;;;;;;;8.30;7.50;;;26.00;96.70;;;;;;5039532;28;20056;-75
2023/08/26 06:35:15;;;;;;;13.25;7.80;;;26.00;96.70;;;;;;5015200;28;20044;-76
2023/08/26 06:37:43;;;;;;;10.25;9.25;;;26.00;96.70;;;;;;5029049;28;20041;-76
2023/08/26 06:40:12;;;;;;;10.38;8.52;;;26.10;96.70;;;;;;5017148;28;20049;-76
2023/08/26 06:42:43;;;;;;;9.32;8.02;;;26.10;96.70;;;;;;5025829;28;20077;-76
2023/08/26 06:45:18;;;;;;;8.07;7.28;;;26.20;96.70;;;;;;5013828;28;20538;-75
2023/08/26 06:47:47;;;;;;;17.02;8.57;;;26.20;96.70;;;;;;5028103;28;20056;-77
2023/08/26 06:50:15;;;;;;;9.18;8.07;;;26.30;96.70;;;;;;5039824;28;20040;-76
2023/08/26 06:52:46;;;;;;;11.45;8.60;;;26.40;96.70;;;;;;5021455;28;20042;-76
2023/08/26 06:55:14;;;;;;;9.07;7.78;;;26.50;96.70;;;;;;5040981;28;20057;-76
2023/08/26 06:57:43;;;;;;;9.27;8.32;;;26.50;96.70;;;;;;5045941;28;20053;-76
2023/08/26 07:00:12;;;;;;;11.50;9.75;;;26.70;96.70;;;;;;5036875;28;20569;-76
2023/08/26 07:02:42;;;;;;;9.35;8.40;;;26.60;96.70;;;;;;5025139;28;20462;-75
2023/08/26 07:05:10;;;;;;;9.80;7.95;;;26.70;96.70;;;;;;5021320;28;20045;-75
2023/08/26 07:07:39;;;;;;;7.90;7.30;;;26.80;96.70;;;;;;5011401;28;20064;-76
2023/08/26 07:10:08;;;;;;;7.53;6.68;;;26.80;96.70;;;;;;5013709;28;20403;-78
2023/08/26 07:12:37;;;;;;;12.40;8.23;;;26.80;96.70;;;;;;5044402;28;20033;-78
2023/08/26 07:15:05;;;;;;;7.32;6.63;;;26.70;96.70;;;;;;5035925;28;20080;-77
2023/08/26 07:17:34;;;;;;;8.07;7.03;;;26.70;96.70;;;;;;5026125;28;20124;-78
2023/08/26 07:20:04;;;;;;;8.10;7.40;;;26.80;96.70;;;;;;5026741;28;20454;-79
2023/08/26 07:22:32;;;;;;;7.20;6.53;;;26.90;96.70;;;;;;5035911;28;20056;-77
2023/08/26 07:25:00;;;;;;;8.00;7.30;;;26.90;96.70;;;;;;5042367;28;20045;-80
2023/08/26 07:27:28;;;;;;;7.72;7.03;;;27.00;96.70;;;;;;5029787;28;20053;-78
2023/08/26 07:29:56;;;;;;;8.25;7.38;;;27.00;96.70;;;;;;5034497;28;20073;-79
2023/08/26 07:32:24;;;;;;;7.28;6.57;;;27.10;96.70;;;;;;5007679;28;20053;-79
2023/08/26 07:34:52;;;;;;;7.90;7.00;;;27.20;96.70;;;;;;5036868;28;20127;-78
2023/08/26 07:37:22;;;;;;;8.20;7.40;;;27.20;96.70;;;;;;5042281;28;20052;-79
2023/08/26 07:39:50;;;;;;;9.60;7.72;;;27.30;96.70;;;;;;5043268;28;20048;-75
2023/08/26 07:42:20;;;;;;;8.52;7.60;;;27.40;96.70;;;;;;5026774;28;20064;-77
2023/08/26 07:44:48;;;;;;;8.75;6.97;;;27.40;96.70;;;;;;5032883;28;20076;-76
2023/08/26 07:47:15;;;;;;;8.63;7.82;;;27.50;96.70;;;;;;5024775;28;20046;-76
2023/08/26 07:49:44;;;;;;;14.38;12.27;;;27.60;96.70;;;;;;5030910;28;20171;-76
2023/08/26 07:52:12;;;;;;;36.50;32.75;;;27.70;96.70;;;;;;5039353;28;20060;-76
2023/08/26 07:54:42;;;;;;;16.63;13.55;;;27.70;96.70;;;;;;5036437;28;20099;-75
2023/08/26 07:57:10;;;;;;;13.57;11.93;;;27.90;96.70;;;;;;5031041;28;20041;-81
2023/08/26 07:59:38;;;;;;;12.68;11.10;;;28.00;96.70;;;;;;5032705;28;20514;-79
2023/08/26 08:02:06;;;;;;;9.48;8.50;;;28.10;96.70;;;;;;5034912;28;20047;-77
2023/08/26 08:04:34;;;;;;;9.93;8.93;;;28.10;96.70;;;;;;5033665;28;20140;-76
2023/08/26 08:07:02;;;;;;;10.32;9.27;;;28.10;96.70;;;;;;5014698;28;20029;-76
2023/08/26 08:09:30;;;;;;;9.95;8.80;;;28.20;96.70;;;;;;5031395;28;20037;-76
2023/08/26 08:12:00;;;;;;;10.45;7.38;;;28.30;96.70;;;;;;5042208;28;20556;-76
2023/08/26 08:14:28;;;;;;;8.88;7.05;;;28.20;96.70;;;;;;5025547;28;20053;-76
2023/08/26 08:16:55;;;;;;;7.90;7.20;;;28.20;96.70;;;;;;5043463;28;20103;-75
2023/08/26 08:19:25;;;;;;;7.82;7.13;;;28.40;96.70;;;;;;5047681;28;20053;-76
2023/08/26 08:21:53;;;;;;;9.25;8.35;;;28.50;96.70;;;;;;5042363;28;20044;-74
2023/08/26 08:24:22;;;;;;;10.20;7.85;;;28.60;96.70;;;;;;5042603;28;20067;-74
2023/08/26 08:26:50;;;;;;;8.60;7.80;;;28.60;96.70;;;;;;5030914;28;20106;-74
2023/08/26 08:29:20;;;;;;;9.55;8.18;;;28.60;96.70;;;;;;5034150;28;20045;-75
2023/08/26 08:31:48;;;;;;;10.85;8.73;;;28.70;96.70;;;;;;5025587;28;20055;-75
2023/08/26 08:34:16;;;;;;;8.07;7.32;;;28.70;96.70;;;;;;5057224;28;20053;-74
2023/08/26 08:36:44;;;;;;;9.00;8.05;;;28.80;96.70;;;;;;5045178;28;20051;-75
2023/08/26 08:39:13;;;;;;;9.13;7.93;;;28.80;96.70;;;;;;5040695;28;20067;-75
2023/08/26 08:41:48;;;;;;;8.27;7.50;;;28.90;96.70;;;;;;5042198;28;20053;-75
2023/08/26 08:44:25;;;;;;;8.60;7.10;;;29.00;96.70;;;;;;5031645;28;20104;-75
2023/08/26 08:46:55;;;;;;;9.60;8.70;;;29.10;96.70;;;;;;5063379;28;20478;-74
2023/08/26 08:49:25;;;;;;;7.60;6.88;;;29.20;96.70;;;;;;5046892;28;20051;-75
2023/08/26 08:51:57;;;;;;;7.72;7.13;;;29.30;96.70;;;;;;5041059;28;20552;-75
2023/08/26 08:54:30;;;;;;;7.82;6.55;;;29.30;96.70;;;;;;5025774;28;20084;-75
2023/08/26 08:56:59;;;;;;;7.60;7.00;;;29.40;96.70;;;;;;5047317;28;20041;-78
2023/08/26 08:59:31;;;;;;;7.60;6.85;;;29.40;96.70;;;;;;5053555;28;20048;-76
2023/08/26 09:01:59;;;;;;;7.43;6.60;;;29.40;96.70;;;;;;5049645;28;20491;-76
2023/08/26 09:04:28;;;;;;;7.05;6.45;;;29.50;96.70;;;;;;5058909;28;20041;-76
2023/08/26 09:06:56;;;;;;;7.22;6.38;;;29.60;96.70;;;;;;5050483;28;20136;-77
2023/08/26 09:09:24;;;;;;;11.10;6.68;;;29.50;96.70;;;;;;5054186;28;20032;-78
2023/08/26 09:12:06;;;;;;;7.75;6.28;;;29.50;96.70;;;;;;5051798;28;20048;-77
2023/08/26 09:14:36;;;;;;;9.25;6.82;;;29.50;96.70;;;;;;5048961;28;20053;-78
2023/08/26 09:17:16;;;;;;;7.07;6.47;;;29.60;96.70;;;;;;5044441;28;20139;-77
2023/08/26 09:19:53;;;;;;;8.05;6.80;;;29.80;96.70;;;;;;5046420;28;20087;-78
2023/08/26 09:22:24;;;;;;;7.03;6.32;;;30.00;96.70;;;;;;5056270;28;20044;-76
2023/08/26 09:24:56;;;;;;;7.47;6.70;;;29.90;96.70;;;;;;5043594;28;20052;-76
2023/08/26 09:27:24;;;;;;;9.80;7.78;;;30.00;96.70;;;;;;5063312;28;20055;-78
2023/08/26 09:29:54;;;;;;;7.82;7.13;;;30.10;96.70;;;;;;5037887;28;20049;-78
2023/08/26 09:32:32;;;;;;;7.93;6.97;;;30.10;96.70;;;;;;5041438;28;20702;-78
2023/08/26 09:35:11;;;;;;;6.60;5.95;;;30.10;96.70;;;;;;5026807;28;20100;-77
2023/08/26 09:37:40;;;;;;;6.72;6.13;;;30.20;96.70;;;;;;5027420;28;20333;-76
2023/08/26 09:40:13;;;;;;;6.32;5.72;;;30.20;96.70;;;;;;5034575;28;20053;-77
2023/08/26 09:42:42;;;;;;;8.32;6.38;;;30.30;96.70;;;;;;5009777;28;20467;-77
2023/08/26 09:45:19;;;;;;;5.90;5.40;;;30.40;96.70;;;;;;5035068;28;20049;-78
2023/08/26 09:47:51;;;;;;;7.95;6.10;;;30.50;96.70;;;;;;5025954;28;20053;-77
2023/08/26 09:50:31;;;;;;;7.63;6.32;;;30.60;96.70;;;;;;5034843;28;20112;-77
2023/08/26 09:52:59;;;;;;;8.05;6.18;;;30.60;96.70;;;;;;5029004;28;20052;-77
2023/08/26 09:55:28;;;;;;;5.60;5.10;;;30.70;96.70;;;;;;5050543;28;20049;-77
2023/08/26 09:57:57;;;;;;;7.00;4.80;;;30.90;96.70;;;;;;5036812;28;20844;-78
2023/08/26 10:00:29;;;;;;;4.97;4.57;;;30.90;96.70;;;;;;5039585;28;20467;-77
2023/08/26 10:03:02;;;;;;;7.25;4.95;;;30.80;96.70;;;;;;5038374;28;20041;-77
2023/08/26 10:05:36;;;;;;;5.50;5.00;;;30.90;96.70;;;;;;5026367;28;20046;-76
2023/08/26 10:08:08;;;;;;;7.18;5.70;;;31.00;96.70;;;;;;5026486;28;20052;-77
2023/08/26 10:10:46;;;;;;;6.47;5.90;;;31.10;96.70;;;;;;5038959;28;20099;-78
2023/08/26 10:13:19;;;;;;;5.80;5.10;;;31.20;96.70;;;;;;5031940;28;20049;-76
2023/08/26 10:15:51;;;;;;;7.20;6.05;;;31.20;96.70;;;;;;5024460;28;20134;-77
2023/08/26 10:18:28;;;;;;;6.22;5.60;;;31.30;96.70;;;;;;5026974;28;20103;-76
2023/08/26 10:21:01;;;;;;;6.45;5.93;;;31.40;96.70;;;;;;5030047;28;20140;-76
2023/08/26 10:23:29;;;;;;;7.60;6.03;;;31.50;96.70;;;;;;5023935;28;20088;-77
2023/08/26 10:25:57;;;;;;;10.18;6.80;;;31.70;96.70;;;;;;5041378;28;20100;-77
2023/08/26 10:28:26;;;;;;;7.00;6.30;;;31.70;96.70;;;;;;5036357;28;20046;-76
2023/08/26 10:30:57;;;;;;;7.05;6.32;;;31.80;96.70;;;;;;5031454;28;20055;-76
2023/08/26 10:33:25;;;;;;;6.57;5.95;;;31.80;96.70;;;;;;5026632;28;20522;-76
2023/08/26 10:36:11;;;;;;;6.60;5.95;;;31.80;96.70;;;;;;5020806;28;20654;-75
2023/08/26 10:38:39;;;;;;;5.60;5.07;;;32.00;96.70;;;;;;5029427;28;21362;-76
2023/08/26 10:41:11;;;;;;;6.10;5.47;;;32.20;96.70;;;;;;5028218;28;20443;-76
2023/08/26 10:43:51;;;;;;;5.28;4.70;;;32.30;96.70;;;;;;5039471;28;20037;-76
2023/08/26 10:46:33;;;;;;;5.03;4.60;;;32.30;96.70;;;;;;5026268;28;20448;-76
2023/08/26 10:49:01;;;;;;;5.93;5.07;;;32.40;96.70;;;;;;5022113;28;20069;-75
2023/08/26 10:51:30;;;;;;;5.20;4.70;;;32.50;96.70;;;;;;5040890;28;20053;-76
2023/08/26 10:54:02;;;;;;;5.60;5.07;;;32.70;96.70;;;;;;5045118;28;20403;-75
2023/08/26 10:56:33;;;;;;;8.55;5.47;;;32.60;96.70;;;;;;5034538;28;20132;-75
2023/08/26 10:59:03;;;;;;;6.85;4.95;;;32.60;96.70;;;;;;5029344;28;20403;-76
2023/08/26 11:01:35;;;;;;;5.90;4.88;;;32.70;96.70;;;;;;5044326;28;20110;-75
2023/08/26 11:04:04;;;;;;;5.85;5.28;;;32.80;96.70;;;;;;5043540;28;20048;-75
2023/08/26 11:06:37;;;;;;;5.30;4.80;;;32.90;96.70;;;;;;5026761;28;20463;-79
2023/08/26 11:09:05;;;;;;;6.15;5.03;;;33.00;96.70;;;;;;5028346;28;20041;-79
2023/08/26 11:11:34;;;;;;;8.07;5.30;;;33.10;96.70;;;;;;5038370;28;20033;-80
2023/08/26 11:14:02;;;;;;;5.10;4.63;;;33.20;96.70;;;;;;5043448;28;20569;-81
2023/08/26 11:16:30;;;;;;;6.40;5.43;;;33.10;96.70;;;;;;5043591;28;20075;-79
2023/08/26 11:19:00;;;;;;;9.32;5.40;;;33.20;96.70;;;;;;5038607;28;20627;-80
2023/08/26 11:21:28;;;;;;;5.43;4.90;;;33.20;96.70;;;;;;5023163;28;20493;-80
2023/08/26 11:24:00;;;;;;;6.05;5.43;;;33.40;96.70;;;;;;5028217;28;20160;-80
2023/08/26 11:26:28;;;;;;;9.25;5.90;;;33.50;96.70;;;;;;5041597;28;20040;-81
2023/08/26 11:29:00;;;;;;;6.75;5.13;;;33.40;96.70;;;;;;5025596;28;20480;-79
2023/08/26 11:31:29;;;;;;;7.57;5.40;;;33.50;96.70;;;;;;5025652;28;20715;-80
2023/08/26 11:33:57;;;;;;;8.55;5.65;;;33.60;96.70;;;;;;5027526;28;20041;-81
2023/08/26 11:36:26;;;;;;;6.15;5.53;;;33.70;96.70;;;;;;5025417;28;20151;-80
2023/08/26 11:38:55;;;;;;;8.13;5.07;;;33.70;96.70;;;;;;5033113;28;20041;-78
2023/08/26 11:41:26;;;;;;;8.82;5.47;;;33.70;96.70;;;;;;5021332;28;20096;-81
2023/08/26 11:43:54;;;;;;;5.60;5.10;;;34.00;96.70;;;;;;5029357;28;20529;-81
2023/08/26 11:46:22;;;;;;;6.35;5.15;;;33.90;96.70;;;;;;5025361;28;20521;-81
2023/08/26 11:48:50;;;;;;;7.22;5.57;;;34.10;96.70;;;;;;5024669;28;20403;-81
2023/08/26 11:51:18;;;;;;;8.02;4.80;;;34.40;96.70;;;;;;5026050;28;20041;-83
2023/08/26 11:53:50;;;;;;;6.47;4.60;;;34.20;96.70;;;;;;5028597;28;20057;-85
2023/08/26 11:56:19;;;;;;;4.82;4.10;;;34.30;96.70;;;;;;5027592;28;20124;-83
2023/08/26 11:58:49;;;;;;;4.30;3.90;;;34.20;96.70;;;;;;5029122;28;20047;-84
2023/08/26 12:01:16;;;;;;;7.15;3.90;;;34.20;96.70;;;;;;5028791;28;20096;-84
2023/08/26 12:03:45;;;;;;;5.85;4.60;;;34.30;96.70;;;;;;5031365;28;20071;-84
2023/08/26 12:06:14;;;;;;;4.65;4.25;;;34.30;96.70;;;;;;5026907;28;20061;-84
2023/08/26 12:08:44;;;;;;;6.22;3.88;;;34.50;96.70;;;;;;5027685;28;20045;-85
2023/08/26 12:11:15;;;;;;;4.07;3.67;;;34.50;96.70;;;;;;5043340;28;20056;-83
2023/08/26 12:13:44;;;;;;;4.25;3.85;;;34.50;96.70;;;;;;5034087;28;20127;-83
2023/08/26 12:16:14;;;;;;;4.68;3.78;;;34.50;96.70;;;;;;5022973;28;20064;-82
2023/08/26 12:18:43;;;;;;;6.28;4.10;;;34.50;96.70;;;;;;5034004;28;20051;-86
2023/08/26 12:21:11;;;;;;;5.68;3.92;;;34.50;96.70;;;;;;5036206;28;20137;-85
2023/08/26 12:23:41;;;;;;;7.22;4.35;;;34.60;96.70;;;;;;5027166;28;20128;-82
2023/08/26 12:26:13;;;;;;;4.80;3.78;;;34.80;96.70;;;;;;5010603;28;20049;-84
2023/08/26 12:28:42;;;;;;;6.80;3.80;;;34.60;96.70;;;;;;5020879;28;20120;-82
2023/08/26 12:31:09;;;;;;;6.63;3.65;;;34.50;96.70;;;;;;5020205;28;20240;-82
2023/08/26 12:33:37;;;;;;;6.18;3.75;;;34.60;96.70;;;;;;5026923;28;20085;-82
2023/08/26 12:36:26;;;;;;;5.13;3.67;;;34.60;96.70;;;;;;5035788;28;20044;-83
2023/08/26 12:38:54;;;;;;;5.80;3.45;;;34.80;96.70;;;;;;5035658;28;20036;-82
2023/08/26 12:41:23;;;;;;;4.70;3.60;;;34.80;96.70;;;;;;5037292;28;20041;-82
2023/08/26 12:43:54;;;;;;;6.35;3.97;;;34.80;96.70;;;;;;5023978;28;20097;-81
2023/08/26 12:46:23;;;;;;;5.60;3.40;;;34.70;96.70;;;;;;5029762;28;20588;-82
2023/08/26 12:48:52;;;;;;;4.93;3.65;;;34.70;96.70;;;;;;5008868;28;20533;-82
2023/08/26 12:51:23;;;;;;;4.18;3.75;;;34.90;96.70;;;;;;5026031;28;20164;-82
2023/08/26 12:53:51;;;;;;;6.13;3.95;;;35.00;96.70;;;;;;5033110;28;20061;-83
2023/08/26 12:56:20;;;;;;;6.63;4.05;;;35.00;96.70;;;;;;5025689;28;20052;-81
2023/08/26 12:58:51;;;;;;;4.90;3.88;;;34.90;96.70;;;;;;5026466;28;20054;-82